createdAt,value
2023-01-01T00:01:40.772Z,15.00
2023-01-01T00:04:10.981Z,15.02
2023-01-01T00:06:37.651Z,15.18
2023-01-01T00:09:04.213Z,15.09
2023-01-01T00:11:30.621Z,15.17
2023-01-01T00:13:56.987Z,15.20
2023-01-01T00:16:23.348Z,15.15
2023-01-01T00:18:49.703Z,15.17
2023-01-01T00:21:16.046Z,15.15
2023-01-01T00:23:42.425Z,15.22
2023-01-01T00:26:10.174Z,15.10
2023-01-01T00:28:36.549Z,15.29
2023-01-01T00:31:16.099Z,15.41
2023-01-01T00:33:42.790Z,15.28
2023-01-01T00:36:10.554Z,15.23
2023-01-01T00:38:37.107Z,15.14
2023-01-01T00:41:04.247Z,15.28
2023-01-01T00:43:30.704Z,15.29
2023-01-01T00:45:57.147Z,15.24
2023-01-01T00:48:24.069Z,15.37
2023-01-01T00:50:52.499Z,15.30
2023-01-01T00:53:20.081Z,15.34
2023-01-01T00:55:48.381Z,15.40
2023-01-01T00:58:16.284Z,15.31
2023-01-01T01:00:43.192Z,15.31
2023-01-01T01:03:14.190Z,15.32
2023-01-01T01:05:40.606Z,15.40
2023-01-01T01:08:06.965Z,15.46
2023-01-01T01:10:33.325Z,15.39
2023-01-01T01:12:59.648Z,15.31
2023-01-01T01:15:25.996Z,15.35
2023-01-01T01:17:52.363Z,15.22
2023-01-01T01:20:18.777Z,15.17
2023-01-01T01:22:45.171Z,15.28
2023-01-01T01:25:11.512Z,15.26
2023-01-01T01:27:37.860Z,15.20
2023-01-01T01:30:04.659Z,15.26
2023-01-01T01:32:31.102Z,15.24
2023-01-01T01:34:57.443Z,15.25
2023-01-01T01:37:23.823Z,15.29
2023-01-01T01:39:53.787Z,15.29
2023-01-01T01:42:20.561Z,15.22
2023-01-01T01:44:46.863Z,15.30
2023-01-01T01:47:33.585Z,15.28
2023-01-01T01:50:12.792Z,15.23
2023-01-01T01:52:47.658Z,15.28
2023-01-01T01:55:14.430Z,15.24
2023-01-01T01:57:41.214Z,15.34
2023-01-01T02:00:11.206Z,15.30
2023-01-01T02:03:07.908Z,15.33
2023-01-01T02:05:35.343Z,15.26
2023-01-01T02:08:04.811Z,15.19
2023-01-01T02:10:32.918Z,15.18
2023-01-01T02:12:59.553Z,15.22
2023-01-01T02:15:31.824Z,15.14
2023-01-01T02:18:06.197Z,15.01
2023-01-01T02:20:54.774Z,14.93
2023-01-01T02:23:45.496Z,14.93
2023-01-01T02:26:27.921Z,14.99
2023-01-01T02:29:11.852Z,14.92
2023-01-01T02:31:45.006Z,14.88
2023-01-01T02:34:14.625Z,14.76
2023-01-01T02:36:48.278Z,14.90
2023-01-01T02:39:16.750Z,14.85
2023-01-01T02:41:46.826Z,14.74
2023-01-01T02:44:13.722Z,14.72
2023-01-01T02:46:40.069Z,14.73
2023-01-01T02:49:10.208Z,14.73
2023-01-01T02:51:55.013Z,14.77
2023-01-01T02:54:53.526Z,14.83
2023-01-01T02:57:46.333Z,14.82
2023-01-01T03:00:15.873Z,14.81
2023-01-01T03:03:00.503Z,14.80
2023-01-01T03:05:37.327Z,14.78
2023-01-01T03:08:08.322Z,14.75
2023-01-01T03:10:49.973Z,14.83
2023-01-01T03:13:35.552Z,14.62
2023-01-01T03:16:42.947Z,14.61
2023-01-01T03:19:18.256Z,14.64
2023-01-01T03:22:05.336Z,14.63
2023-01-01T03:24:46.800Z,14.61
2023-01-01T03:27:17.961Z,14.62
2023-01-01T03:29:47.285Z,14.59
2023-01-01T03:32:19.873Z,14.44
2023-01-01T03:34:53.547Z,14.52
2023-01-01T03:37:25.363Z,14.50
2023-01-01T03:39:55.992Z,14.58
2023-01-01T03:42:34.695Z,14.51
2023-01-01T03:45:06.813Z,14.62
2023-01-01T03:47:33.378Z,14.54
2023-01-01T03:50:00.379Z,14.54
2023-01-01T03:52:45.583Z,14.56
2023-01-01T03:55:32.137Z,14.52
2023-01-01T03:58:08.261Z,14.52
2023-01-01T04:00:38.852Z,14.48
2023-01-01T04:03:15.642Z,14.50
2023-01-01T04:05:43.154Z,14.50
2023-01-01T04:08:11.594Z,14.41
2023-01-01T04:10:43.034Z,14.47
2023-01-01T04:13:09.622Z,14.47
2023-01-01T04:15:36.271Z,14.39
2023-01-01T04:18:03.272Z,14.51
2023-01-01T04:20:29.662Z,14.34
2023-01-01T04:23:00.723Z,14.34
2023-01-01T04:25:28.232Z,14.46
2023-01-01T04:27:54.810Z,14.44
2023-01-01T04:30:21.417Z,14.41
2023-01-01T04:32:47.795Z,14.37
2023-01-01T04:35:14.826Z,14.54
2023-01-01T04:37:43.052Z,14.46
2023-01-01T04:40:10.927Z,14.34
2023-01-01T04:42:37.470Z,14.33
2023-01-01T04:45:03.999Z,14.41
2023-01-01T04:47:30.322Z,14.42
2023-01-01T04:49:56.647Z,14.45
2023-01-01T04:52:23.258Z,14.38
2023-01-01T04:54:49.558Z,14.38
2023-01-01T04:57:15.841Z,14.33
2023-01-01T04:59:42.177Z,14.28
2023-01-01T05:02:08.621Z,14.24
2023-01-01T05:04:35.003Z,14.31
2023-01-01T05:07:01.306Z,14.28
2023-01-01T05:09:27.602Z,14.22
2023-01-01T05:11:55.038Z,14.29
2023-01-01T05:14:21.355Z,14.35
2023-01-01T05:16:47.786Z,14.36
2023-01-01T05:19:14.110Z,14.31
2023-01-01T05:21:40.527Z,14.35
2023-01-01T05:24:09.152Z,14.31
2023-01-01T05:26:38.645Z,14.47
2023-01-01T05:29:11.763Z,14.39
2023-01-01T05:31:41.809Z,14.33
2023-01-01T05:36:36.229Z,14.29
2023-01-01T05:39:02.523Z,14.33
2023-01-01T05:41:28.817Z,14.33
2023-01-01T05:43:55.140Z,14.33
2023-01-01T05:46:24.022Z,14.30
2023-01-01T05:48:52.458Z,14.26
2023-01-01T05:51:21.482Z,14.18
2023-01-01T05:53:48.227Z,14.11
2023-01-01T05:56:16.206Z,14.20
2023-01-01T05:58:43.195Z,14.09
2023-01-01T06:01:14.109Z,14.06
2023-01-01T06:03:41.612Z,14.06
2023-01-01T06:06:10.675Z,14.06
2023-01-01T06:08:37.237Z,14.09
2023-01-01T06:11:06.242Z,14.04
2023-01-01T06:13:32.964Z,13.89
2023-01-01T06:16:01.072Z,13.88
2023-01-01T06:18:31.204Z,13.99
2023-01-01T06:21:10.402Z,13.87
2023-01-01T06:23:37.220Z,13.86
2023-01-01T06:26:05.310Z,13.79
2023-01-01T06:28:31.756Z,13.82
2023-01-01T06:31:02.340Z,13.79
2023-01-01T06:33:29.317Z,13.77
2023-01-01T06:35:56.068Z,13.68
2023-01-01T06:38:22.453Z,13.74
2023-01-01T06:40:57.081Z,13.72
2023-01-01T06:43:23.596Z,13.75
2023-01-01T06:45:59.911Z,13.87
2023-01-01T06:48:26.253Z,13.83
2023-01-01T06:50:52.548Z,13.86
2023-01-01T06:53:18.857Z,13.97
2023-01-01T06:55:55.008Z,13.93
2023-01-01T06:58:23.345Z,13.94
2023-01-01T07:00:49.721Z,13.91
2023-01-01T07:03:16.051Z,13.89
2023-01-01T07:05:42.371Z,13.92
2023-01-01T07:08:08.762Z,13.94
2023-01-01T07:10:35.106Z,13.99
2023-01-01T07:13:01.446Z,14.02
2023-01-01T07:15:27.910Z,13.97
2023-01-01T07:17:54.201Z,13.97
2023-01-01T07:20:21.218Z,13.99
2023-01-01T07:22:47.522Z,13.98
2023-01-01T07:25:14.744Z,13.95
2023-01-01T07:27:41.050Z,14.00
2023-01-01T07:30:09.063Z,14.04
2023-01-01T07:32:35.374Z,13.99
2023-01-01T07:35:01.695Z,14.03
2023-01-01T07:37:28.009Z,14.05
2023-01-01T07:39:54.310Z,13.93
2023-01-01T07:42:20.640Z,13.96
2023-01-01T07:44:46.996Z,13.98
2023-01-01T07:47:23.700Z,13.90
2023-01-01T07:49:51.176Z,13.92
2023-01-01T07:52:17.689Z,13.98
2023-01-01T07:54:44.048Z,13.94
2023-01-01T07:57:10.583Z,13.96
2023-01-01T07:59:37.308Z,13.91
2023-01-01T08:02:04.055Z,13.85
2023-01-01T08:04:30.399Z,13.82
2023-01-01T08:06:56.762Z,13.89
2023-01-01T08:09:23.058Z,13.76
2023-01-01T08:11:49.425Z,13.55
2023-01-01T08:14:15.754Z,13.57
2023-01-01T08:16:42.044Z,13.37
2023-01-01T08:19:08.351Z,13.34
2023-01-01T08:21:34.684Z,13.15
2023-01-01T08:24:00.997Z,12.93
2023-01-01T08:26:31.151Z,12.95
2023-01-01T08:28:58.182Z,12.86
2023-01-01T08:31:25.101Z,12.81
2023-01-01T08:33:51.455Z,12.55
2023-01-01T08:36:17.804Z,12.49
2023-01-01T08:38:44.164Z,12.55
2023-01-01T08:41:10.481Z,12.36
2023-01-01T08:43:36.782Z,12.44
2023-01-01T08:46:03.172Z,12.43
2023-01-01T08:48:31.032Z,12.38
2023-01-01T08:50:59.796Z,12.20
2023-01-01T08:53:27.758Z,12.23
2023-01-01T08:56:05.055Z,12.27
2023-01-01T08:58:32.571Z,12.13
2023-01-01T09:00:59.005Z,12.15
2023-01-01T09:03:26.110Z,12.06
2023-01-01T09:05:52.870Z,12.13
2023-01-01T09:08:20.142Z,12.08
2023-01-01T09:10:47.407Z,11.96
2023-01-01T09:13:16.006Z,11.88
2023-01-01T09:15:42.820Z,11.87
2023-01-01T09:18:10.231Z,11.84
2023-01-01T09:20:37.029Z,11.72
2023-01-01T09:23:06.005Z,11.76
2023-01-01T09:25:33.324Z,11.75
2023-01-01T09:28:01.657Z,11.65
2023-01-01T09:30:28.407Z,11.66
2023-01-01T09:32:54.713Z,11.63
2023-01-01T09:35:21.064Z,11.71
2023-01-01T09:37:47.864Z,11.71
2023-01-01T09:40:32.872Z,11.58
2023-01-01T09:43:08.868Z,11.52
2023-01-01T09:45:56.036Z,11.57
2023-01-01T09:48:25.732Z,11.35
2023-01-01T09:50:52.656Z,11.20
2023-01-01T09:53:37.668Z,11.00
2023-01-01T09:56:05.379Z,10.93
2023-01-01T09:58:36.943Z,10.75
2023-01-01T10:01:19.963Z,10.65
2023-01-01T10:03:53.948Z,10.39
2023-01-01T10:06:33.689Z,10.49
2023-01-01T10:09:15.008Z,10.49
2023-01-01T10:12:05.880Z,10.33
2023-01-01T10:14:35.925Z,10.31
2023-01-01T10:17:10.676Z,10.30
2023-01-01T10:19:39.327Z,10.22
2023-01-01T10:22:28.228Z,10.13
2023-01-01T10:25:15.239Z,10.18
2023-01-01T10:27:47.713Z,10.13
2023-01-01T10:30:19.950Z,10.14
2023-01-01T10:32:48.906Z,10.28
2023-01-01T10:35:30.288Z,10.24
2023-01-01T10:37:59.105Z,10.25
2023-01-01T10:40:27.637Z,10.19
2023-01-01T10:42:56.511Z,10.31
2023-01-01T10:46:02.443Z,10.39
2023-01-01T10:48:31.186Z,10.50
2023-01-01T10:51:03.512Z,10.43
2023-01-01T10:53:31.506Z,10.58
2023-01-01T10:56:03.079Z,10.60
2023-01-01T10:58:50.207Z,10.60
2023-01-01T11:01:29.040Z,10.60
2023-01-01T11:03:58.554Z,10.55
2023-01-01T11:06:42.885Z,10.45
2023-01-01T11:09:24.788Z,10.29
2023-01-01T11:12:09.454Z,10.27
2023-01-01T11:14:39.266Z,10.32
2023-01-01T11:17:05.712Z,10.42
2023-01-01T11:19:44.374Z,10.33
2023-01-01T11:22:41.212Z,10.33
2023-01-01T11:25:25.611Z,10.42
2023-01-01T11:27:53.083Z,10.48
2023-01-01T11:30:29.239Z,10.49
2023-01-01T11:33:00.711Z,10.58
2023-01-01T11:35:30.481Z,10.45
2023-01-01T11:37:58.323Z,10.37
2023-01-01T11:40:35.728Z,10.46
2023-01-01T11:43:04.830Z,10.32
2023-01-01T11:45:39.092Z,10.32
2023-01-01T11:48:17.026Z,10.44
2023-01-01T11:50:55.542Z,10.40
2023-01-01T11:53:21.827Z,10.53
2023-01-01T11:56:12.060Z,10.62
2023-01-01T11:59:01.882Z,10.74
2023-01-01T12:01:44.781Z,10.88
2023-01-01T12:04:20.668Z,11.02
2023-01-01T12:06:55.529Z,11.12
2023-01-01T12:09:27.248Z,11.11
2023-01-01T12:12:06.027Z,11.13
2023-01-01T12:14:39.521Z,11.18
2023-01-01T12:17:24.222Z,11.08
2023-01-01T12:19:56.435Z,11.18
2023-01-01T12:22:23.253Z,11.21
2023-01-01T12:24:50.882Z,11.16
2023-01-01T12:27:39.023Z,11.20
2023-01-01T12:30:10.145Z,11.31
2023-01-01T12:33:05.635Z,11.23
2023-01-01T12:36:00.835Z,11.30
2023-01-01T12:38:54.541Z,11.35
2023-01-01T12:41:48.673Z,11.27
2023-01-01T12:44:33.270Z,11.24
2023-01-01T12:47:20.697Z,11.41
2023-01-01T12:50:14.855Z,11.53
2023-01-01T12:52:57.290Z,11.70
2023-01-01T12:55:34.927Z,11.80
2023-01-01T12:58:22.691Z,11.91
2023-01-01T13:03:24.414Z,12.08
2023-01-01T13:05:54.924Z,12.03
2023-01-01T13:08:21.305Z,11.94
2023-01-01T13:10:51.733Z,11.87
2023-01-01T13:13:19.191Z,11.74
2023-01-01T13:15:48.779Z,11.71
2023-01-01T13:18:15.080Z,11.56
2023-01-01T13:20:56.360Z,11.50
2023-01-01T13:23:28.671Z,11.45
2023-01-01T13:26:19.844Z,11.31
2023-01-01T13:28:52.196Z,11.38
2023-01-01T13:31:18.794Z,11.38
2023-01-01T13:34:09.617Z,11.34
2023-01-01T13:36:36.005Z,11.32
2023-01-01T13:39:02.343Z,11.38
2023-01-01T13:41:30.515Z,11.40
2023-01-01T13:43:59.903Z,11.41
2023-01-01T13:46:44.390Z,11.38
2023-01-01T13:50:01.846Z,11.32
2023-01-01T13:52:56.393Z,11.39
2023-01-01T13:55:38.735Z,11.54
2023-01-01T13:58:31.888Z,11.55
2023-01-01T14:01:32.427Z,11.64
2023-01-01T14:04:00.633Z,11.60
2023-01-01T14:06:39.085Z,11.60
2023-01-01T14:09:11.893Z,11.61
2023-01-01T14:11:38.354Z,11.62
2023-01-01T14:14:18.825Z,11.61
2023-01-01T14:16:45.181Z,11.65
2023-01-01T14:19:14.673Z,11.73
2023-01-01T14:21:43.157Z,11.80
2023-01-01T14:24:15.167Z,11.85
2023-01-01T14:26:41.976Z,11.98
2023-01-01T14:29:15.448Z,11.97
2023-01-01T14:31:44.722Z,11.87
2023-01-01T14:34:16.642Z,11.93
2023-01-01T14:36:54.074Z,11.87
2023-01-01T14:39:28.856Z,12.00
2023-01-01T14:42:16.726Z,11.89
2023-01-01T14:44:50.333Z,11.92
2023-01-01T14:47:30.231Z,11.86
2023-01-01T14:50:04.919Z,11.92
2023-01-01T14:52:33.356Z,11.82
2023-01-01T14:55:00.515Z,11.87
2023-01-01T14:57:30.525Z,11.74
2023-01-01T14:59:56.931Z,11.80
2023-01-01T15:02:28.958Z,11.76
2023-01-01T15:04:57.111Z,11.87
2023-01-01T15:07:31.389Z,11.81
2023-01-01T15:09:59.575Z,11.75
2023-01-01T15:12:26.281Z,11.79
2023-01-01T15:14:54.330Z,11.87
2023-01-01T15:17:22.725Z,11.73
2023-01-01T15:20:05.387Z,11.73
2023-01-01T15:22:37.537Z,11.76
2023-01-01T15:25:04.124Z,11.78
2023-01-01T15:27:36.431Z,11.73
2023-01-01T15:30:13.324Z,11.71
2023-01-01T15:32:40.319Z,11.63
2023-01-01T15:35:20.789Z,11.53
2023-01-01T15:37:52.989Z,11.53
2023-01-01T15:40:19.299Z,11.57
2023-01-01T15:43:05.205Z,11.56
2023-01-01T15:45:42.107Z,11.61
2023-01-01T15:48:11.166Z,11.58
2023-01-01T15:50:40.166Z,11.59
2023-01-01T15:53:21.965Z,11.57
2023-01-01T15:56:01.179Z,11.53
2023-01-01T15:58:37.997Z,11.58
2023-01-01T16:01:10.736Z,11.50
2023-01-01T16:03:39.428Z,11.42
2023-01-01T16:06:07.264Z,11.29
2023-01-01T16:08:33.727Z,11.42
2023-01-01T16:11:00.098Z,11.44
2023-01-01T16:13:26.388Z,11.28
2023-01-01T16:15:55.587Z,11.26
2023-01-01T16:18:27.815Z,11.16
2023-01-01T16:20:54.968Z,11.11
2023-01-01T16:23:21.519Z,11.18
2023-01-01T16:25:47.833Z,11.19
2023-01-01T16:28:14.796Z,11.20
2023-01-01T16:30:43.255Z,11.32
2023-01-01T16:33:15.106Z,11.31
2023-01-01T16:35:41.432Z,11.30
2023-01-01T16:38:07.724Z,11.23
2023-01-01T16:40:37.962Z,11.19
2023-01-01T16:43:05.725Z,11.16
2023-01-01T16:45:32.042Z,11.15
2023-01-01T16:47:58.344Z,11.08
2023-01-01T16:50:24.644Z,11.08
2023-01-01T16:52:50.966Z,11.15
2023-01-01T16:55:17.319Z,11.08
2023-01-01T16:57:43.794Z,11.14
2023-01-01T17:00:10.798Z,11.06
2023-01-01T17:02:37.281Z,11.14
2023-01-01T17:05:03.910Z,11.14
2023-01-01T17:07:30.212Z,11.08
2023-01-01T17:09:56.524Z,11.11
2023-01-01T17:12:22.912Z,10.98
2023-01-01T17:14:49.264Z,11.04
2023-01-01T17:17:15.592Z,11.10
2023-01-01T17:19:41.928Z,11.05
2023-01-01T17:22:08.241Z,11.03
2023-01-01T17:24:34.529Z,11.02
2023-01-01T17:27:00.836Z,11.04
2023-01-01T17:29:27.206Z,11.10
2023-01-01T17:31:53.554Z,11.06
2023-01-01T17:34:20.030Z,11.07
2023-01-01T17:36:46.473Z,11.07
2023-01-01T17:39:14.299Z,11.14
2023-01-01T17:41:42.252Z,11.13
2023-01-01T17:44:08.717Z,11.07
2023-01-01T17:46:35.086Z,11.09
2023-01-01T17:49:02.681Z,11.25
2023-01-01T17:51:29.447Z,11.22
2023-01-01T17:53:56.351Z,11.15
2023-01-01T17:56:24.343Z,11.18
2023-01-01T17:58:52.412Z,11.15
2023-01-01T18:01:21.985Z,11.02
2023-01-01T18:03:54.053Z,11.03
2023-01-01T18:06:20.473Z,11.08
2023-01-01T18:08:47.522Z,11.10
2023-01-01T18:11:14.324Z,11.16
2023-01-01T18:13:40.645Z,11.19
2023-01-01T18:16:08.958Z,11.15
2023-01-01T18:18:36.515Z,11.06
2023-01-01T18:21:05.072Z,11.04
2023-01-01T18:23:36.353Z,11.05
2023-01-01T18:26:05.197Z,11.13
2023-01-01T18:28:32.222Z,11.06
2023-01-01T18:31:15.909Z,10.96
2023-01-01T18:33:43.098Z,10.94
2023-01-01T18:36:15.938Z,10.90
2023-01-01T18:38:45.975Z,10.90
2023-01-01T18:41:39.555Z,10.85
2023-01-01T18:44:19.059Z,10.92
2023-01-01T18:46:49.710Z,10.90
2023-01-01T18:49:16.390Z,10.91
2023-01-01T18:51:42.685Z,10.91
2023-01-01T18:54:12.534Z,10.94
2023-01-01T18:56:38.988Z,10.89
2023-01-01T18:59:18.964Z,10.99
2023-01-01T19:01:45.762Z,10.97
2023-01-01T19:04:12.633Z,11.03
2023-01-01T19:06:39.456Z,10.94
2023-01-01T19:09:18.587Z,10.94
2023-01-01T19:11:45.347Z,10.98
2023-01-01T19:14:29.888Z,10.95
2023-01-01T19:16:58.412Z,10.97
2023-01-01T19:19:26.236Z,10.96
2023-01-01T19:22:13.922Z,10.91
2023-01-01T19:24:43.456Z,10.75
2023-01-01T19:27:16.045Z,10.73
2023-01-01T19:29:44.944Z,10.83
2023-01-01T19:32:11.623Z,10.85
2023-01-01T19:34:37.926Z,10.81
2023-01-01T19:37:04.975Z,10.82
2023-01-01T19:39:31.783Z,10.85
2023-01-01T19:41:58.492Z,10.86
2023-01-01T19:44:25.353Z,10.78
2023-01-01T19:46:51.898Z,10.79
2023-01-01T19:49:18.246Z,10.73
2023-01-01T19:51:44.856Z,10.73
2023-01-01T19:54:11.193Z,10.75
2023-01-01T19:56:37.510Z,10.73
2023-01-01T19:59:03.821Z,10.66
2023-01-01T20:01:30.290Z,10.69
2023-01-01T20:03:57.592Z,10.74
2023-01-01T20:06:25.280Z,10.68
2023-01-01T20:08:51.957Z,10.51
2023-01-01T20:11:18.982Z,10.46
2023-01-01T20:13:45.401Z,10.40
2023-01-01T20:16:11.826Z,10.42
2023-01-01T20:18:38.250Z,10.46
2023-01-01T20:21:04.742Z,10.44
2023-01-01T20:23:31.041Z,10.34
2023-01-01T20:25:57.363Z,10.28
2023-01-01T20:28:23.665Z,10.27
2023-01-01T20:30:49.994Z,10.28
2023-01-01T20:33:16.283Z,10.16
2023-01-01T20:35:42.613Z,10.13
2023-01-01T20:38:08.913Z,10.21
2023-01-01T20:40:35.222Z,10.33
2023-01-01T20:43:01.533Z,10.32
2023-01-01T20:45:27.955Z,10.27
2023-01-01T20:47:54.258Z,10.26
2023-01-01T20:50:20.565Z,10.20
2023-01-01T20:52:46.852Z,10.11
2023-01-01T20:55:13.216Z,10.20
2023-01-01T20:57:39.553Z,10.20
2023-01-01T21:00:06.603Z,10.18
2023-01-01T21:02:33.044Z,10.14
2023-01-01T21:04:59.523Z,10.10
2023-01-01T21:07:25.823Z,10.14
2023-01-01T21:09:52.178Z,10.17
2023-01-01T21:12:18.479Z,10.19
2023-01-01T21:14:45.210Z,10.28
2023-01-01T21:17:22.900Z,10.27
2023-01-01T21:19:51.801Z,10.22
2023-01-01T21:22:18.120Z,10.20
2023-01-01T21:24:48.418Z,10.24
2023-01-01T21:27:21.306Z,10.21
2023-01-01T21:29:50.741Z,10.18
2023-01-01T21:32:39.884Z,10.28
2023-01-01T21:35:22.637Z,10.25
2023-01-01T21:37:52.686Z,10.28
2023-01-01T21:40:22.152Z,10.29
2023-01-01T21:42:49.381Z,10.40
2023-01-01T21:45:44.739Z,10.22
2023-01-01T21:48:31.708Z,10.14
2023-01-01T21:50:58.723Z,10.13
2023-01-01T21:53:34.608Z,10.17
2023-01-01T21:56:30.776Z,10.21
2023-01-01T21:59:09.917Z,10.29
2023-01-01T22:01:39.388Z,10.26
2023-01-01T22:04:26.111Z,10.34
2023-01-01T22:07:00.307Z,10.31
2023-01-01T22:09:31.448Z,10.35
2023-01-01T22:12:16.946Z,10.41
2023-01-01T22:14:45.962Z,10.26
2023-01-01T22:17:36.618Z,10.35
2023-01-01T22:20:18.915Z,10.31
2023-01-01T22:22:45.300Z,10.35
2023-01-01T22:25:29.913Z,10.39
2023-01-01T22:27:56.307Z,10.33
2023-01-01T22:30:25.599Z,10.42
2023-01-01T22:32:55.067Z,10.52
2023-01-01T22:35:31.874Z,10.49
2023-01-01T22:38:01.214Z,10.49
2023-01-01T22:40:36.360Z,10.35
2023-01-01T22:43:15.105Z,10.32
2023-01-01T22:45:43.507Z,10.50
2023-01-01T22:48:18.248Z,10.47
2023-01-01T22:50:45.320Z,10.46
2023-01-01T22:53:11.659Z,10.54
2023-01-01T22:55:37.952Z,10.46
2023-01-01T22:58:04.704Z,10.49
2023-01-01T23:00:31.173Z,10.53
2023-01-01T23:02:57.604Z,10.58
2023-01-01T23:05:23.972Z,10.49
2023-01-01T23:07:50.332Z,10.63
2023-01-01T23:10:16.902Z,10.60
2023-01-01T23:12:43.273Z,10.58
2023-01-01T23:15:09.981Z,10.46
2023-01-01T23:17:36.292Z,10.47
2023-01-01T23:20:03.347Z,10.53
2023-01-01T23:22:34.552Z,10.52
2023-01-01T23:25:00.966Z,10.49
2023-01-01T23:27:27.751Z,10.55
2023-01-01T23:29:54.504Z,10.49
2023-01-01T23:32:21.011Z,10.54
2023-01-01T23:34:47.461Z,10.47
2023-01-01T23:37:15.063Z,10.35
2023-01-01T23:39:41.417Z,10.37
2023-01-01T23:42:07.778Z,10.49
2023-01-01T23:44:34.108Z,10.53
2023-01-01T23:47:00.925Z,10.62
2023-01-01T23:49:28.355Z,10.47
2023-01-01T23:51:55.596Z,10.50
2023-01-01T23:54:21.904Z,10.58
2023-01-01T23:56:48.212Z,10.63
2023-01-01T23:59:14.550Z,10.74
